createdAt,value
2022-11-14T00:01:41.026Z,35.06
2022-11-14T00:04:12.197Z,35.22
2022-11-14T00:06:42.779Z,34.87
2022-11-14T00:09:13.334Z,35.18
2022-11-14T00:11:43.983Z,34.94
2022-11-14T00:14:15.319Z,35.12
2022-11-14T00:16:47.961Z,35.32
2022-11-14T00:19:18.276Z,35.06
2022-11-14T00:21:48.893Z,35.21
2022-11-14T00:24:18.978Z,35.31
2022-11-14T00:26:49.621Z,35.09
2022-11-14T00:29:20.232Z,35.00
2022-11-14T00:31:53.340Z,35.30
2022-11-14T00:34:23.679Z,35.22
2022-11-14T00:36:53.487Z,35.48
2022-11-14T00:39:24.405Z,35.10
2022-11-14T00:41:55.154Z,35.44
2022-11-14T00:44:25.012Z,35.33
2022-11-14T00:46:57.733Z,35.26
2022-11-14T00:49:28.644Z,35.34
2022-11-14T00:51:58.539Z,35.50
2022-11-14T00:54:28.276Z,35.72
2022-11-14T00:56:58.205Z,35.56
2022-11-14T00:59:28.282Z,35.81
2022-11-14T01:02:00.850Z,35.68
2022-11-14T01:04:31.963Z,35.33
2022-11-14T01:07:02.574Z,35.60
2022-11-14T01:09:33.139Z,35.75
2022-11-14T01:12:03.806Z,36.05
2022-11-14T01:14:33.995Z,35.80
2022-11-14T01:17:06.555Z,35.88
2022-11-14T01:19:37.090Z,35.84
2022-11-14T01:22:07.145Z,36.17
2022-11-14T01:24:38.484Z,35.96
2022-11-14T01:27:08.949Z,36.04
2022-11-14T01:29:39.996Z,35.87
2022-11-14T01:32:12.729Z,36.04
2022-11-14T01:34:43.378Z,35.91
2022-11-14T01:37:14.001Z,36.04
2022-11-14T01:39:43.742Z,36.12
2022-11-14T01:42:14.439Z,36.11
2022-11-14T01:44:55.462Z,36.15
2022-11-14T01:47:32.945Z,36.06
2022-11-14T01:50:06.779Z,36.42
2022-11-14T01:52:42.193Z,36.28
2022-11-14T01:55:13.722Z,36.70
2022-11-14T01:57:50.689Z,36.64
2022-11-14T02:00:21.475Z,36.71
2022-11-14T02:03:01.343Z,36.64
2022-11-14T02:05:33.222Z,36.89
2022-11-14T02:08:03.289Z,36.71
2022-11-14T02:10:34.139Z,36.97
2022-11-14T02:13:04.683Z,36.99
2022-11-14T02:15:36.008Z,36.93
2022-11-14T02:18:09.277Z,36.89
2022-11-14T02:20:44.127Z,37.24
2022-11-14T02:23:17.795Z,36.78
2022-11-14T02:25:48.250Z,37.21
2022-11-14T02:28:18.048Z,37.24
2022-11-14T02:30:48.734Z,37.19
2022-11-14T02:33:22.423Z,37.34
2022-11-14T02:35:54.109Z,37.45
2022-11-14T02:38:25.004Z,37.56
2022-11-14T02:40:55.907Z,37.71
2022-11-14T02:43:26.561Z,37.57
2022-11-14T02:46:01.394Z,37.70
2022-11-14T02:48:35.096Z,37.95
2022-11-14T02:51:08.548Z,37.69
2022-11-14T02:53:39.421Z,38.15
2022-11-14T02:56:10.621Z,37.96
2022-11-14T02:58:40.618Z,38.23
2022-11-14T03:01:26.225Z,38.10
2022-11-14T03:03:57.580Z,38.05
2022-11-14T03:06:30.056Z,38.23
2022-11-14T03:09:00.849Z,37.89
2022-11-14T03:11:31.625Z,38.38
2022-11-14T03:14:03.677Z,38.20
2022-11-14T03:16:33.753Z,38.35
2022-11-14T03:19:04.489Z,38.22
2022-11-14T03:21:36.568Z,38.40
2022-11-14T03:24:07.970Z,38.42
2022-11-14T03:26:38.217Z,38.55
2022-11-14T03:29:12.971Z,38.71
2022-11-14T03:31:44.237Z,38.56
2022-11-14T03:34:15.346Z,38.62
2022-11-14T03:36:48.273Z,38.65
2022-11-14T03:39:19.172Z,38.99
2022-11-14T03:41:49.743Z,38.80
2022-11-14T03:44:20.354Z,38.90
2022-11-14T03:46:50.096Z,39.14
2022-11-14T03:49:19.844Z,39.12
2022-11-14T03:51:51.217Z,39.13
2022-11-14T03:54:21.777Z,39.12
2022-11-14T03:56:52.362Z,39.14
2022-11-14T03:59:23.156Z,39.20
2022-11-14T04:01:53.250Z,39.47
2022-11-14T04:04:23.779Z,39.67
2022-11-14T04:06:56.124Z,39.59
2022-11-14T04:09:26.861Z,39.46
2022-11-14T04:11:57.549Z,39.51
2022-11-14T04:14:27.665Z,39.52
2022-11-14T04:16:57.515Z,39.59
2022-11-14T04:19:28.424Z,39.58
2022-11-14T04:22:01.074Z,39.78
2022-11-14T04:24:31.825Z,39.77
2022-11-14T04:27:02.801Z,39.81
2022-11-14T04:29:32.906Z,39.70
2022-11-14T04:32:03.827Z,39.75
2022-11-14T04:34:34.295Z,40.23
2022-11-14T04:37:06.853Z,39.86
2022-11-14T04:39:37.105Z,40.08
2022-11-14T04:42:07.809Z,39.97
2022-11-14T04:44:38.507Z,40.24
2022-11-14T04:47:08.325Z,40.18
2022-11-14T04:49:39.354Z,40.09
2022-11-14T04:52:12.289Z,40.35
2022-11-14T04:54:43.082Z,40.51
2022-11-14T04:57:12.706Z,40.37
2022-11-14T04:59:43.123Z,40.58
2022-11-14T05:02:13.758Z,40.47
2022-11-14T05:04:44.855Z,40.72
2022-11-14T05:07:18.047Z,40.90
2022-11-14T05:09:48.785Z,41.00
2022-11-14T05:12:18.821Z,40.94
2022-11-14T05:14:49.471Z,41.02
2022-11-14T05:17:20.525Z,41.07
2022-11-14T05:19:51.033Z,41.14
2022-11-14T05:22:22.682Z,41.21
2022-11-14T05:24:53.118Z,41.33
2022-11-14T05:27:23.365Z,41.45
2022-11-14T05:29:53.470Z,41.61
2022-11-14T05:32:23.759Z,41.55
2022-11-14T05:34:54.469Z,41.96
2022-11-14T05:37:27.298Z,41.61
2022-11-14T05:39:57.856Z,41.95
2022-11-14T05:42:29.804Z,41.68
2022-11-14T05:45:00.305Z,41.55
2022-11-14T05:47:30.888Z,42.15
2022-11-14T05:50:01.600Z,41.99
2022-11-14T05:52:34.532Z,42.26
2022-11-14T05:55:05.033Z,42.11
2022-11-14T05:57:36.275Z,41.89
2022-11-14T06:00:08.145Z,41.98
2022-11-14T06:02:38.510Z,42.04
2022-11-14T06:05:09.702Z,41.67
2022-11-14T06:07:42.325Z,41.83
2022-11-14T06:10:14.280Z,41.78
2022-11-14T06:12:44.449Z,41.59
2022-11-14T06:15:14.697Z,42.10
2022-11-14T06:17:45.337Z,41.95
2022-11-14T06:20:16.275Z,41.54
2022-11-14T06:22:48.296Z,41.43
2022-11-14T06:25:19.190Z,41.32
2022-11-14T06:27:49.745Z,41.51
2022-11-14T06:30:20.272Z,41.64
2022-11-14T06:32:51.066Z,41.49
2022-11-14T06:35:21.405Z,41.16
2022-11-14T06:38:01.134Z,41.09
2022-11-14T06:40:31.734Z,41.18
2022-11-14T06:43:01.890Z,41.59
2022-11-14T06:45:32.680Z,41.36
2022-11-14T06:48:03.794Z,41.02
2022-11-14T06:50:34.516Z,40.72
2022-11-14T06:53:07.318Z,41.05
2022-11-14T06:55:37.928Z,40.55
2022-11-14T06:58:08.634Z,40.76
2022-11-14T07:00:38.686Z,40.59
2022-11-14T07:03:13.642Z,40.22
2022-11-14T07:05:43.582Z,40.77
2022-11-14T07:08:20.861Z,40.05
2022-11-14T07:10:51.897Z,40.27
2022-11-14T07:13:22.085Z,40.58
2022-11-14T07:15:56.310Z,39.84
2022-11-14T07:18:27.602Z,39.90
2022-11-14T07:21:03.376Z,40.45
2022-11-14T07:23:37.055Z,39.88
2022-11-14T07:26:10.681Z,39.62
2022-11-14T07:28:45.930Z,40.07
2022-11-14T07:31:21.447Z,39.45
2022-11-14T07:33:52.069Z,39.64
2022-11-14T07:36:23.165Z,40.12
2022-11-14T07:38:55.285Z,40.16
2022-11-14T07:41:26.263Z,39.47
2022-11-14T07:43:56.349Z,39.59
2022-11-14T07:46:27.375Z,39.16
2022-11-14T07:48:58.727Z,39.84
2022-11-14T07:51:28.904Z,39.61
2022-11-14T07:54:01.142Z,39.55
2022-11-14T07:56:31.934Z,39.19
2022-11-14T07:59:03.019Z,39.22
2022-11-14T08:01:34.033Z,38.81
2022-11-14T08:04:05.196Z,39.18
2022-11-14T08:06:35.780Z,38.92
2022-11-14T08:09:08.143Z,38.69
2022-11-14T08:11:49.801Z,38.67
2022-11-14T08:14:20.616Z,38.36
2022-11-14T08:16:52.706Z,38.11
2022-11-14T08:19:23.595Z,38.16
2022-11-14T08:21:54.232Z,37.72
2022-11-14T08:24:27.045Z,38.19
2022-11-14T08:26:57.783Z,37.36
2022-11-14T08:29:28.640Z,37.30
2022-11-14T08:32:00.077Z,37.87
2022-11-14T08:34:30.891Z,37.68
2022-11-14T08:37:01.013Z,37.77
2022-11-14T08:39:33.343Z,37.50
2022-11-14T08:42:04.217Z,36.96
2022-11-14T08:44:34.910Z,37.43
2022-11-14T08:47:05.884Z,36.85
2022-11-14T08:49:36.948Z,37.43
2022-11-14T08:52:09.313Z,36.85
2022-11-14T08:54:47.705Z,36.78
2022-11-14T08:57:18.315Z,37.16
2022-11-14T08:59:48.691Z,36.45
2022-11-14T09:02:19.231Z,36.96
2022-11-14T09:04:49.112Z,36.73
2022-11-14T09:07:19.843Z,36.44
2022-11-14T09:09:51.554Z,36.53
2022-11-14T09:12:22.080Z,37.12
2022-11-14T09:14:52.095Z,36.65
2022-11-14T09:17:23.075Z,37.04
2022-11-14T09:19:53.550Z,37.41
2022-11-14T09:22:24.461Z,37.49
2022-11-14T09:24:56.556Z,36.79
2022-11-14T09:27:29.601Z,36.75
2022-11-14T09:30:00.315Z,37.04
2022-11-14T09:32:31.063Z,37.09
2022-11-14T09:35:01.767Z,36.90
2022-11-14T09:37:32.691Z,37.63
2022-11-14T09:40:05.901Z,37.37
2022-11-14T09:43:02.999Z,37.49
2022-11-14T09:45:35.960Z,37.58
2022-11-14T09:48:15.644Z,36.94
2022-11-14T09:50:53.971Z,37.22
2022-11-14T09:53:33.668Z,37.62
2022-11-14T09:56:06.425Z,37.14
2022-11-14T09:58:36.571Z,37.07
2022-11-14T10:01:13.839Z,37.07
2022-11-14T10:04:01.066Z,37.15
2022-11-14T10:06:38.501Z,37.68
2022-11-14T10:09:51.576Z,37.23
2022-11-14T10:12:33.747Z,37.96
2022-11-14T10:15:33.845Z,37.60
2022-11-14T10:18:30.742Z,38.00
2022-11-14T10:21:13.304Z,37.70
2022-11-14T10:24:05.746Z,37.79
2022-11-14T10:26:48.325Z,38.36
2022-11-14T10:30:02.209Z,38.12
2022-11-14T10:33:03.398Z,37.78
2022-11-14T10:35:41.760Z,38.18
2022-11-14T10:38:21.607Z,37.91
2022-11-14T10:40:56.032Z,38.36
2022-11-14T10:43:35.263Z,38.43
2022-11-14T10:46:18.440Z,37.94
2022-11-14T10:48:55.088Z,37.99
2022-11-14T10:51:37.762Z,38.53
2022-11-14T10:54:16.641Z,38.04
2022-11-14T10:56:51.227Z,38.03
2022-11-14T10:59:22.228Z,38.19
2022-11-14T11:02:01.316Z,37.91
2022-11-14T11:04:33.330Z,38.08
2022-11-14T11:07:42.877Z,38.57
2022-11-14T11:10:42.440Z,38.65
2022-11-14T11:13:29.866Z,38.63
2022-11-14T11:16:03.501Z,38.27
2022-11-14T11:18:37.677Z,38.29
2022-11-14T11:21:12.685Z,38.30
2022-11-14T11:23:54.559Z,38.09
2022-11-14T11:26:29.360Z,38.13
2022-11-14T11:29:19.325Z,38.04
2022-11-14T11:31:56.072Z,38.28
2022-11-14T11:34:31.392Z,38.75
2022-11-14T11:37:12.731Z,38.25
2022-11-14T11:39:51.890Z,38.85
2022-11-14T11:43:06.254Z,38.68
2022-11-14T11:45:22.231Z,38.61
2022-11-14T11:48:00.388Z,38.38
2022-11-14T11:50:33.807Z,38.70
2022-11-14T11:53:21.041Z,38.67
2022-11-14T11:55:57.434Z,38.51
2022-11-14T11:58:35.816Z,38.72
2022-11-14T12:01:06.654Z,39.03
2022-11-14T12:03:38.740Z,38.84
2022-11-14T12:06:25.050Z,38.77
2022-11-14T12:09:12.978Z,38.82
2022-11-14T12:11:48.752Z,38.69
2022-11-14T12:15:00.546Z,38.99
2022-11-14T12:18:21.096Z,38.95
2022-11-14T12:21:12.903Z,39.14
2022-11-14T12:24:41.959Z,39.17
2022-11-14T12:27:37.599Z,38.82
2022-11-14T12:30:16.816Z,39.29
2022-11-14T12:32:55.615Z,38.84
2022-11-14T12:35:31.289Z,39.15
2022-11-14T12:38:05.360Z,38.86
2022-11-14T12:40:42.267Z,39.23
2022-11-14T12:43:37.913Z,39.19
2022-11-14T12:46:11.562Z,39.10
2022-11-14T12:48:44.825Z,39.43
2022-11-14T12:51:52.475Z,39.28
2022-11-14T12:54:49.585Z,39.24
2022-11-14T12:57:50.790Z,39.44
2022-11-14T13:00:21.913Z,39.04
2022-11-14T13:03:17.622Z,39.02
2022-11-14T13:06:03.900Z,39.15
2022-11-14T13:09:17.559Z,39.13
2022-11-14T13:12:06.668Z,38.87
2022-11-14T13:15:10.125Z,39.06
2022-11-14T13:17:59.364Z,39.19
2022-11-14T13:20:54.279Z,39.11
2022-11-14T13:24:00.428Z,39.27
2022-11-14T13:26:49.016Z,39.29
2022-11-14T13:30:03.168Z,39.12
2022-11-14T13:33:06.977Z,38.95
2022-11-14T13:36:04.877Z,39.38
2022-11-14T13:39:22.286Z,39.25
2022-11-14T13:42:29.011Z,39.29
2022-11-14T13:45:51.298Z,39.86
2022-11-14T13:48:49.582Z,39.21
2022-11-14T13:51:42.190Z,39.13
2022-11-14T13:54:18.713Z,39.52
2022-11-14T13:57:06.984Z,39.71
2022-11-14T14:00:03.816Z,39.38
2022-11-14T14:03:17.085Z,39.36
2022-11-14T14:06:13.955Z,39.31
2022-11-14T14:09:07.580Z,39.39
2022-11-14T14:12:04.404Z,39.56
2022-11-14T14:15:00.187Z,39.59
2022-11-14T14:17:46.564Z,39.83
2022-11-14T14:20:38.223Z,39.90
2022-11-14T14:23:30.580Z,39.32
2022-11-14T14:26:19.473Z,39.71
2022-11-14T14:29:06.404Z,39.86
2022-11-14T14:31:40.265Z,39.49
2022-11-14T14:34:26.644Z,40.06
2022-11-14T14:37:00.837Z,39.62
2022-11-14T14:39:32.540Z,39.86
2022-11-14T14:42:03.220Z,39.62
2022-11-14T14:44:41.366Z,39.60
2022-11-14T14:47:35.598Z,39.73
2022-11-14T14:50:10.689Z,39.65
2022-11-14T14:52:43.160Z,39.67
2022-11-14T14:55:27.171Z,39.66
2022-11-14T14:57:57.934Z,40.04
2022-11-14T15:00:30.288Z,40.15
2022-11-14T15:03:01.126Z,39.65
2022-11-14T15:05:34.064Z,39.97
2022-11-14T15:08:11.368Z,40.20
2022-11-14T15:10:46.200Z,40.30
2022-11-14T15:13:20.636Z,40.15
2022-11-14T15:15:57.484Z,40.01
2022-11-14T15:18:31.980Z,40.38
2022-11-14T15:21:27.663Z,40.31
2022-11-14T15:24:19.050Z,39.85
2022-11-14T15:26:52.293Z,40.54
2022-11-14T15:29:25.530Z,40.60
2022-11-14T15:32:00.119Z,40.53
2022-11-14T15:34:49.513Z,40.37
2022-11-14T15:37:26.286Z,40.28
2022-11-14T15:40:20.443Z,40.29
2022-11-14T15:42:51.112Z,40.52
2022-11-14T15:46:04.574Z,40.85
2022-11-14T15:48:35.429Z,40.78
2022-11-14T15:51:06.226Z,40.57
2022-11-14T15:53:36.212Z,40.75
2022-11-14T15:56:10.896Z,40.41
2022-11-14T15:58:45.363Z,40.68
2022-11-14T16:01:27.030Z,40.97
2022-11-14T16:03:59.640Z,40.99
2022-11-14T16:06:30.041Z,41.28
2022-11-14T16:09:01.939Z,40.88
2022-11-14T16:11:33.982Z,40.84
2022-11-14T16:14:04.893Z,41.36
2022-11-14T16:16:36.242Z,40.72
2022-11-14T16:19:08.338Z,40.98
2022-11-14T16:21:43.143Z,40.84
2022-11-14T16:24:19.765Z,40.89
2022-11-14T16:26:53.398Z,41.31
2022-11-14T16:29:24.260Z,40.94
2022-11-14T16:31:55.728Z,41.16
2022-11-14T16:34:30.987Z,41.19
2022-11-14T16:37:07.291Z,41.33
2022-11-14T16:39:40.606Z,41.39
2022-11-14T16:42:14.488Z,41.39
2022-11-14T16:44:50.523Z,41.34
2022-11-14T16:47:23.065Z,41.62
2022-11-14T16:49:54.779Z,41.32
2022-11-14T16:52:25.546Z,40.98
2022-11-14T16:54:57.395Z,41.46
2022-11-14T16:57:29.609Z,41.25
2022-11-14T17:00:01.543Z,41.28
2022-11-14T17:02:31.509Z,41.56
2022-11-14T17:05:01.944Z,41.16
2022-11-14T17:07:33.686Z,40.99
2022-11-14T17:10:05.334Z,41.76
2022-11-14T17:12:39.002Z,41.52
2022-11-14T17:15:13.104Z,41.03
2022-11-14T17:17:46.749Z,41.47
2022-11-14T17:20:17.455Z,41.52
2022-11-14T17:22:48.274Z,41.25
2022-11-14T17:25:18.774Z,41.56
2022-11-14T17:27:52.271Z,41.55
2022-11-14T17:30:24.449Z,41.62
2022-11-14T17:32:56.938Z,41.84
2022-11-14T17:35:26.942Z,41.50
2022-11-14T17:38:00.281Z,41.73
2022-11-14T17:40:32.093Z,41.84
2022-11-14T17:43:05.302Z,41.62
2022-11-14T17:45:41.437Z,41.64
2022-11-14T17:48:18.994Z,41.81
2022-11-14T17:50:49.833Z,41.54
2022-11-14T17:53:21.650Z,41.34
2022-11-14T17:55:59.145Z,41.58
2022-11-14T17:58:35.171Z,41.76
2022-11-14T18:01:13.700Z,41.89
2022-11-14T18:03:46.232Z,41.68
2022-11-14T18:06:20.958Z,41.63
2022-11-14T18:08:51.995Z,41.84
2022-11-14T18:11:22.585Z,41.44
2022-11-14T18:13:58.956Z,41.87
2022-11-14T18:16:50.526Z,41.40
2022-11-14T18:19:21.559Z,41.29
2022-11-14T18:21:53.867Z,41.73
2022-11-14T18:24:25.895Z,41.58
2022-11-14T18:26:57.042Z,41.95
2022-11-14T18:29:31.314Z,41.64
2022-11-14T18:32:04.961Z,41.84
2022-11-14T18:34:37.317Z,41.58
2022-11-14T18:37:08.831Z,41.50
2022-11-14T18:39:41.078Z,41.89
2022-11-14T18:42:11.940Z,41.83
2022-11-14T18:44:45.902Z,41.58
2022-11-14T18:47:19.688Z,41.84
2022-11-14T18:49:50.175Z,41.62
2022-11-14T18:52:21.052Z,42.03
2022-11-14T18:54:51.999Z,41.82
2022-11-14T18:57:26.251Z,41.48
2022-11-14T18:59:59.412Z,41.72
2022-11-14T19:02:43.343Z,41.68
2022-11-14T19:05:15.038Z,41.71
2022-11-14T19:07:47.207Z,41.56
2022-11-14T19:10:18.004Z,41.77
2022-11-14T19:12:54.466Z,41.59
2022-11-14T19:15:27.714Z,41.52
2022-11-14T19:18:00.520Z,41.32
2022-11-14T19:20:31.630Z,41.79
2022-11-14T19:23:06.278Z,41.39
2022-11-14T19:25:42.149Z,41.68
2022-11-14T19:28:13.154Z,41.72
2022-11-14T19:30:46.621Z,41.89
2022-11-14T19:33:18.079Z,41.98
2022-11-14T19:35:50.720Z,41.87
2022-11-14T19:38:22.486Z,41.59
2022-11-14T19:41:00.784Z,41.84
2022-11-14T19:43:35.245Z,41.49
2022-11-14T19:46:10.383Z,42.03
2022-11-14T19:48:44.264Z,42.15
2022-11-14T19:51:18.084Z,41.50
2022-11-14T19:53:50.744Z,41.66
2022-11-14T19:56:23.414Z,41.93
2022-11-14T19:58:57.178Z,41.66
2022-11-14T20:01:31.940Z,42.18
2022-11-14T20:04:04.732Z,41.79
2022-11-14T20:06:38.756Z,42.26
2022-11-14T20:09:12.657Z,41.54
2022-11-14T20:11:42.817Z,42.09
2022-11-14T20:14:15.231Z,41.75
2022-11-14T20:16:48.388Z,42.11
2022-11-14T20:19:23.373Z,41.66
2022-11-14T20:21:56.521Z,41.76
2022-11-14T20:24:29.078Z,41.90
2022-11-14T20:27:03.098Z,41.59
2022-11-14T20:29:39.378Z,41.68
2022-11-14T20:32:15.930Z,42.28
2022-11-14T20:34:47.970Z,41.71
2022-11-14T20:37:19.915Z,41.86
2022-11-14T20:39:53.007Z,42.27
2022-11-14T20:42:26.610Z,42.19
2022-11-14T20:44:56.903Z,41.81
2022-11-14T20:47:31.683Z,42.07
2022-11-14T20:50:02.692Z,42.04
2022-11-14T20:52:33.214Z,41.93
2022-11-14T20:55:08.920Z,41.79
2022-11-14T20:57:42.406Z,42.24
2022-11-14T21:00:14.949Z,41.84
2022-11-14T21:02:49.461Z,41.95
2022-11-14T21:05:19.767Z,42.25
2022-11-14T21:07:50.156Z,42.14
2022-11-14T21:10:38.257Z,42.16
2022-11-14T21:13:27.621Z,42.17
2022-11-14T21:15:59.875Z,42.18
2022-11-14T21:18:34.401Z,42.12
2022-11-14T21:21:08.282Z,42.25
2022-11-14T21:23:39.885Z,42.10
2022-11-14T21:26:12.564Z,42.31
2022-11-14T21:28:46.515Z,42.34
2022-11-14T21:31:20.991Z,42.25
2022-11-14T21:33:55.265Z,42.30
2022-11-14T21:39:17.458Z,42.13
2022-11-14T21:41:49.558Z,41.83
2022-11-14T21:44:21.990Z,42.01
2022-11-14T21:46:52.607Z,42.37
2022-11-14T21:49:25.074Z,42.10
2022-11-14T21:51:54.812Z,42.43
2022-11-14T21:54:24.732Z,42.30
2022-11-14T21:56:55.473Z,42.16
2022-11-14T21:59:28.220Z,42.18
2022-11-14T22:02:34.024Z,42.09
2022-11-14T22:05:05.924Z,42.21
2022-11-14T22:07:36.610Z,42.31
2022-11-14T22:10:10.777Z,42.14
2022-11-14T22:12:41.390Z,42.31
2022-11-14T22:15:12.253Z,42.25
2022-11-14T22:17:43.462Z,42.38
2022-11-14T22:20:17.746Z,42.42
2022-11-14T22:22:47.806Z,42.52
2022-11-14T22:25:18.587Z,42.27
2022-11-14T22:27:49.058Z,42.59
2022-11-14T22:30:20.155Z,42.27
2022-11-14T22:32:52.627Z,42.26
2022-11-14T22:35:25.536Z,42.62
2022-11-14T22:37:55.611Z,42.48
2022-11-14T22:40:25.801Z,42.43
2022-11-14T22:42:56.390Z,42.69
2022-11-14T22:45:27.499Z,42.43
2022-11-14T22:48:00.560Z,42.50
2022-11-14T22:50:32.962Z,42.62
2022-11-14T22:53:03.622Z,42.74
2022-11-14T22:55:34.285Z,42.30
2022-11-14T22:58:04.411Z,42.56
2022-11-14T23:00:34.187Z,42.85
2022-11-14T23:03:04.153Z,42.56
2022-11-14T23:05:42.250Z,42.71
2022-11-14T23:08:12.628Z,42.51
2022-11-14T23:10:44.371Z,42.96
2022-11-14T23:13:16.350Z,42.87
2022-11-14T23:15:50.870Z,42.93
2022-11-14T23:18:21.681Z,42.79
2022-11-14T23:20:54.379Z,42.63
2022-11-14T23:23:24.693Z,42.69
2022-11-14T23:25:56.444Z,42.86
2022-11-14T23:28:26.924Z,42.66
2022-11-14T23:30:59.971Z,42.59
2022-11-14T23:33:30.624Z,42.66
2022-11-14T23:36:03.559Z,42.89
2022-11-14T23:38:33.647Z,42.86
2022-11-14T23:41:04.963Z,42.97
2022-11-14T23:43:35.623Z,42.83
2022-11-14T23:46:06.016Z,42.91
2022-11-14T23:48:36.570Z,42.86
2022-11-14T23:51:09.956Z,42.86
2022-11-14T23:53:40.616Z,42.80
2022-11-14T23:56:15.370Z,43.04
2022-11-14T23:58:45.866Z,42.82
